Minnetonka, Minnesota
Current Conditions -  °F | °C
As of 1:53 AM on Thursday 29 Jan 2015 (Local Time) from KFCM Reporting Station
Haze Haze  
Wind Chill: 23°   Ceiling: 800
Heat Index: 32°   Visibility: 4mi
Dew Point: 29°   Wind: 12mph
Humidity: 88%   Direction: 310°NW
Pressure: 29.89"   Gusts: NA
Location:  44.94°N, 93.47°W
Report Text: KFCM 290753Z AUTO 31010KT 4SM BR OVC008 00/M02 A2989 RMK AO2 SLP133 T00001017
Loading
Personal Weather Stations






























Interactive Weather Map New forecast layout! Learn more

10-Day Weather Forecast

Advertisements
Track Severe Weather on mobile